首页
METAR-TAF:

METAR-TAF

机场 :

都灵, 意大利

纬度: 45-05-20N, 经度: 007-36-20E, 海拔: 288米

当前天气观测

该预报发布于22分钟前的13:27 UTC
风速3节,风向东北,在北转西北之间变化
温度 2°C
湿度 100%
气压 1006 hPa
能見度: 0250
阴天层高于200英尺

METAR: LIMA 031327Z 04003KT 330V090 0250 FG OVC002 02/02 Q1006

时间: 14:49 (13:49 UTC)


TAF: 丢失

超过4000个机场的气象观测和天气预报(METAR&TAF报告)。

可查询的气象台以黄色和红色小点在地图上表示。

将鼠标移到小点上方,可查看气象台名称。

然后点击查看天气观测和预报。

如需切换地图:点击带黑十字的绿色按钮放大地图;点击带横线的绿色按钮缩小地图;或者点击绿色箭头查看邻近地区的地图。


METAR-TAF: